sensor_id;sensor_type;location;lat;lon;timestamp;P1;durP1;ratioP1;P2;durP2;ratioP2
3131;SDS011;62090;52.330;9.104;2022-09-09T00:01:43;4.47;;;1.70;;
3131;SDS011;62090;52.330;9.104;2022-09-09T00:04:22;6.47;;;1.53;;
3131;SDS011;62090;52.330;9.104;2022-09-09T00:06:59;7.07;;;1.80;;
3131;SDS011;62090;52.330;9.104;2022-09-09T00:09:35;4.20;;;1.53;;
3131;SDS011;62090;52.330;9.104;2022-09-09T00:12:15;10.73;;;1.60;;
3131;SDS011;62090;52.330;9.104;2022-09-09T00:14:50;8.10;;;1.60;;
3131;SDS011;62090;52.330;9.104;2022-09-09T00:17:30;2.67;;;1.40;;
3131;SDS011;62090;52.330;9.104;2022-09-09T00:20:10;2.70;;;1.40;;
3131;SDS011;62090;52.330;9.104;2022-09-09T00:22:45;4.70;;;2.27;;
3131;SDS011;62090;52.330;9.104;2022-09-09T00:25:22;6.33;;;1.60;;
3131;SDS011;62090;52.330;9.104;2022-09-09T00:28:00;2.63;;;1.30;;
3131;SDS011;62090;52.330;9.104;2022-09-09T00:30:31;3.00;;;1.30;;
3131;SDS011;62090;52.330;9.104;2022-09-09T00:33:08;4.30;;;1.53;;
3131;SDS011;62090;52.330;9.104;2022-09-09T00:35:43;6.60;;;1.50;;
3131;SDS011;62090;52.330;9.104;2022-09-09T00:38:15;2.17;;;1.20;;
3131;SDS011;62090;52.330;9.104;2022-09-09T00:40:50;5.77;;;1.83;;
3131;SDS011;62090;52.330;9.104;2022-09-09T00:43:28;3.20;;;1.50;;
3131;SDS011;62090;52.330;9.104;2022-09-09T00:46:09;6.77;;;1.43;;
3131;SDS011;62090;52.330;9.104;2022-09-09T00:49:00;5.90;;;1.20;;
3131;SDS011;62090;52.330;9.104;2022-09-09T00:51:41;4.57;;;1.27;;
3131;SDS011;62090;52.330;9.104;2022-09-09T00:54:23;3.33;;;1.20;;
3131;SDS011;62090;52.330;9.104;2022-09-09T00:57:10;3.90;;;1.37;;
3131;SDS011;62090;52.330;9.104;2022-09-09T00:59:51;10.37;;;1.50;;
3131;SDS011;62090;52.330;9.104;2022-09-09T01:02:27;11.93;;;1.93;;
3131;SDS011;62090;52.330;9.104;2022-09-09T01:04:59;7.87;;;1.77;;
3131;SDS011;62090;52.330;9.104;2022-09-09T01:07:34;6.23;;;1.43;;
3131;SDS011;62090;52.330;9.104;2022-09-09T01:10:07;6.43;;;1.50;;
3131;SDS011;62090;52.330;9.104;2022-09-09T01:12:44;6.50;;;1.57;;
3131;SDS011;62090;52.330;9.104;2022-09-09T01:15:22;7.53;;;1.90;;
3131;SDS011;62090;52.330;9.104;2022-09-09T01:17:57;8.07;;;1.47;;
3131;SDS011;62090;52.330;9.104;2022-09-09T01:20:36;12.80;;;1.67;;
3131;SDS011;62090;52.330;9.104;2022-09-09T01:23:23;16.33;;;1.90;;
3131;SDS011;62090;52.330;9.104;2022-09-09T01:26:28;11.13;;;1.77;;
3131;SDS011;62090;52.330;9.104;2022-09-09T01:29:07;6.57;;;1.20;;
3131;SDS011;62090;52.330;9.104;2022-09-09T01:31:40;5.53;;;1.33;;
3131;SDS011;62090;52.330;9.104;2022-09-09T01:34:12;4.93;;;1.30;;
3131;SDS011;62090;52.330;9.104;2022-09-09T01:36:44;7.40;;;1.53;;
3131;SDS011;62090;52.330;9.104;2022-09-09T01:39:17;2.77;;;1.43;;
3131;SDS011;62090;52.330;9.104;2022-09-09T01:41:58;3.90;;;1.30;;
3131;SDS011;62090;52.330;9.104;2022-09-09T01:44:29;5.60;;;1.60;;
3131;SDS011;62090;52.330;9.104;2022-09-09T01:47:00;7.17;;;1.77;;
3131;SDS011;62090;52.330;9.104;2022-09-09T01:49:30;5.43;;;1.60;;
3131;SDS011;62090;52.330;9.104;2022-09-09T01:52:08;4.03;;;1.63;;
3131;SDS011;62090;52.330;9.104;2022-09-09T01:54:38;6.80;;;2.00;;
3131;SDS011;62090;52.330;9.104;2022-09-09T01:57:17;5.10;;;1.60;;
3131;SDS011;62090;52.330;9.104;2022-09-09T01:59:54;13.23;;;1.50;;
3131;SDS011;62090;52.330;9.104;2022-09-09T02:02:42;3.80;;;1.30;;
3131;SDS011;62090;52.330;9.104;2022-09-09T02:05:26;9.30;;;1.63;;
3131;SDS011;62090;52.330;9.104;2022-09-09T02:08:15;11.43;;;1.57;;
3131;SDS011;62090;52.330;9.104;2022-09-09T02:10:58;5.33;;;1.70;;
3131;SDS011;62090;52.330;9.104;2022-09-09T02:13:44;6.07;;;1.50;;
3131;SDS011;62090;52.330;9.104;2022-09-09T02:16:17;4.57;;;1.70;;
3131;SDS011;62090;52.330;9.104;2022-09-09T02:18:55;8.70;;;1.60;;
3131;SDS011;62090;52.330;9.104;2022-09-09T02:21:42;12.23;;;1.90;;
3131;SDS011;62090;52.330;9.104;2022-09-09T02:24:15;8.83;;;1.80;;
3131;SDS011;62090;52.330;9.104;2022-09-09T02:26:54;5.53;;;1.80;;
3131;SDS011;62090;52.330;9.104;2022-09-09T02:29:29;9.30;;;1.90;;
3131;SDS011;62090;52.330;9.104;2022-09-09T02:32:03;6.10;;;1.83;;
3131;SDS011;62090;52.330;9.104;2022-09-09T02:34:40;4.50;;;1.77;;
3131;SDS011;62090;52.330;9.104;2022-09-09T02:37:14;6.17;;;2.20;;
3131;SDS011;62090;52.330;9.104;2022-09-09T02:39:51;4.77;;;2.17;;
3131;SDS011;62090;52.330;9.104;2022-09-09T02:42:21;6.50;;;1.70;;
3131;SDS011;62090;52.330;9.104;2022-09-09T02:44:56;8.63;;;1.77;;
3131;SDS011;62090;52.330;9.104;2022-09-09T02:47:29;8.60;;;1.73;;
3131;SDS011;62090;52.330;9.104;2022-09-09T02:50:12;10.00;;;1.97;;
3131;SDS011;62090;52.330;9.104;2022-09-09T02:52:52;9.93;;;2.33;;
3131;SDS011;62090;52.330;9.104;2022-09-09T02:55:34;5.33;;;2.10;;
3131;SDS011;62090;52.330;9.104;2022-09-09T02:58:10;14.10;;;1.90;;
3131;SDS011;62090;52.330;9.104;2022-09-09T03:00:56;7.30;;;2.33;;
3131;SDS011;62090;52.330;9.104;2022-09-09T03:03:29;7.83;;;1.93;;
3131;SDS011;62090;52.330;9.104;2022-09-09T03:06:02;7.80;;;2.00;;
3131;SDS011;62090;52.330;9.104;2022-09-09T03:08:33;9.07;;;2.30;;
3131;SDS011;62090;52.330;9.104;2022-09-09T03:11:03;7.23;;;1.87;;
3131;SDS011;62090;52.330;9.104;2022-09-09T03:13:35;4.90;;;1.60;;
3131;SDS011;62090;52.330;9.104;2022-09-09T03:16:08;8.83;;;1.87;;
3131;SDS011;62090;52.330;9.104;2022-09-09T03:18:43;5.70;;;1.83;;
3131;SDS011;62090;52.330;9.104;2022-09-09T03:21:12;6.07;;;1.53;;
3131;SDS011;62090;52.330;9.104;2022-09-09T03:23:43;6.03;;;2.00;;
3131;SDS011;62090;52.330;9.104;2022-09-09T03:26:14;7.57;;;1.80;;
3131;SDS011;62090;52.330;9.104;2022-09-09T03:28:46;4.87;;;1.73;;
3131;SDS011;62090;52.330;9.104;2022-09-09T03:31:20;9.43;;;2.10;;
3131;SDS011;62090;52.330;9.104;2022-09-09T03:33:51;8.60;;;1.73;;
3131;SDS011;62090;52.330;9.104;2022-09-09T03:36:20;5.33;;;1.33;;
3131;SDS011;62090;52.330;9.104;2022-09-09T03:38:50;5.40;;;2.00;;
3131;SDS011;62090;52.330;9.104;2022-09-09T03:41:22;10.00;;;1.57;;
3131;SDS011;62090;52.330;9.104;2022-09-09T03:43:53;6.80;;;1.90;;
3131;SDS011;62090;52.330;9.104;2022-09-09T03:46:27;12.10;;;1.97;;
3131;SDS011;62090;52.330;9.104;2022-09-09T03:48:58;6.10;;;1.83;;
3131;SDS011;62090;52.330;9.104;2022-09-09T03:51:30;7.27;;;2.13;;
3131;SDS011;62090;52.330;9.104;2022-09-09T03:54:03;6.00;;;1.70;;
3131;SDS011;62090;52.330;9.104;2022-09-09T03:56:37;6.73;;;1.67;;
3131;SDS011;62090;52.330;9.104;2022-09-09T03:59:11;5.27;;;1.60;;
3131;SDS011;62090;52.330;9.104;2022-09-09T04:01:44;5.20;;;1.70;;
3131;SDS011;62090;52.330;9.104;2022-09-09T04:04:15;7.00;;;1.50;;
3131;SDS011;62090;52.330;9.104;2022-09-09T04:06:46;7.73;;;1.67;;
3131;SDS011;62090;52.330;9.104;2022-09-09T04:09:17;2.10;;;1.30;;
3131;SDS011;62090;52.330;9.104;2022-09-09T04:11:48;3.30;;;1.37;;
3131;SDS011;62090;52.330;9.104;2022-09-09T04:14:19;7.87;;;2.07;;
3131;SDS011;62090;52.330;9.104;2022-09-09T04:16:52;3.20;;;1.20;;
3131;SDS011;62090;52.330;9.104;2022-09-09T04:19:25;5.40;;;1.60;;
3131;SDS011;62090;52.330;9.104;2022-09-09T04:21:55;5.17;;;1.63;;
3131;SDS011;62090;52.330;9.104;2022-09-09T04:24:25;6.50;;;2.00;;
3131;SDS011;62090;52.330;9.104;2022-09-09T04:26:56;4.93;;;1.53;;
3131;SDS011;62090;52.330;9.104;2022-09-09T04:29:25;5.40;;;1.67;;
3131;SDS011;62090;52.330;9.104;2022-09-09T04:31:58;5.50;;;1.50;;
3131;SDS011;62090;52.330;9.104;2022-09-09T04:34:28;5.80;;;1.77;;
3131;SDS011;62090;52.330;9.104;2022-09-09T04:36:58;8.30;;;1.83;;
3131;SDS011;62090;52.330;9.104;2022-09-09T04:39:28;7.60;;;1.70;;
3131;SDS011;62090;52.330;9.104;2022-09-09T04:41:59;8.27;;;2.10;;
3131;SDS011;62090;52.330;9.104;2022-09-09T04:44:29;6.70;;;2.00;;
3131;SDS011;62090;52.330;9.104;2022-09-09T04:47:02;9.03;;;1.60;;
3131;SDS011;62090;52.330;9.104;2022-09-09T04:49:31;3.60;;;1.70;;
3131;SDS011;62090;52.330;9.104;2022-09-09T04:52:01;5.90;;;1.80;;
3131;SDS011;62090;52.330;9.104;2022-09-09T04:54:33;7.10;;;1.80;;
3131;SDS011;62090;52.330;9.104;2022-09-09T04:57:04;4.23;;;1.60;;
3131;SDS011;62090;52.330;9.104;2022-09-09T04:59:34;6.77;;;2.00;;
3131;SDS011;62090;52.330;9.104;2022-09-09T05:02:08;7.83;;;2.10;;
3131;SDS011;62090;52.330;9.104;2022-09-09T05:04:38;6.47;;;1.70;;
3131;SDS011;62090;52.330;9.104;2022-09-09T05:07:07;14.83;;;1.97;;
3131;SDS011;62090;52.330;9.104;2022-09-09T05:09:38;4.33;;;1.77;;
3131;SDS011;62090;52.330;9.104;2022-09-09T05:12:09;10.80;;;1.97;;
3131;SDS011;62090;52.330;9.104;2022-09-09T05:14:46;3.90;;;1.97;;
3131;SDS011;62090;52.330;9.104;2022-09-09T05:17:18;11.17;;;2.07;;
3131;SDS011;62090;52.330;9.104;2022-09-09T05:19:48;3.63;;;1.50;;
3131;SDS011;62090;52.330;9.104;2022-09-09T05:22:18;6.87;;;2.03;;
3131;SDS011;62090;52.330;9.104;2022-09-09T05:24:52;5.80;;;2.20;;
3131;SDS011;62090;52.330;9.104;2022-09-09T05:27:21;6.47;;;2.13;;
3131;SDS011;62090;52.330;9.104;2022-09-09T05:29:51;7.50;;;2.00;;
3131;SDS011;62090;52.330;9.104;2022-09-09T05:32:23;7.30;;;1.73;;
3131;SDS011;62090;52.330;9.104;2022-09-09T05:34:53;7.40;;;2.03;;
3131;SDS011;62090;52.330;9.104;2022-09-09T05:37:23;5.50;;;2.00;;
3131;SDS011;62090;52.330;9.104;2022-09-09T05:39:53;9.00;;;2.90;;
3131;SDS011;62090;52.330;9.104;2022-09-09T05:42:25;9.07;;;1.90;;
3131;SDS011;62090;52.330;9.104;2022-09-09T05:45:00;6.23;;;2.00;;
3131;SDS011;62090;52.330;9.104;2022-09-09T05:47:32;9.07;;;2.57;;
3131;SDS011;62090;52.330;9.104;2022-09-09T05:50:02;11.40;;;2.17;;
3131;SDS011;62090;52.330;9.104;2022-09-09T05:52:32;7.37;;;2.70;;
3131;SDS011;62090;52.330;9.104;2022-09-09T05:55:04;5.30;;;1.90;;
3131;SDS011;62090;52.330;9.104;2022-09-09T05:57:34;5.87;;;2.23;;
3131;SDS011;62090;52.330;9.104;2022-09-09T06:00:06;5.70;;;1.90;;
3131;SDS011;62090;52.330;9.104;2022-09-09T06:02:49;7.43;;;1.90;;
3131;SDS011;62090;52.330;9.104;2022-09-09T06:05:20;5.30;;;1.90;;
3131;SDS011;62090;52.330;9.104;2022-09-09T06:07:53;6.80;;;1.93;;
3131;SDS011;62090;52.330;9.104;2022-09-09T06:10:23;3.93;;;1.80;;
3131;SDS011;62090;52.330;9.104;2022-09-09T06:12:53;8.53;;;2.40;;
3131;SDS011;62090;52.330;9.104;2022-09-09T06:15:23;11.53;;;2.80;;
3131;SDS011;62090;52.330;9.104;2022-09-09T06:17:56;15.70;;;2.80;;
3131;SDS011;62090;52.330;9.104;2022-09-09T06:20:26;6.37;;;2.07;;
3131;SDS011;62090;52.330;9.104;2022-09-09T06:22:57;5.93;;;2.13;;
3131;SDS011;62090;52.330;9.104;2022-09-09T06:25:27;7.23;;;2.40;;
3131;SDS011;62090;52.330;9.104;2022-09-09T06:27:57;9.50;;;2.67;;
3131;SDS011;62090;52.330;9.104;2022-09-09T06:30:29;8.23;;;2.77;;
3131;SDS011;62090;52.330;9.104;2022-09-09T06:33:01;7.70;;;2.80;;
3131;SDS011;62090;52.330;9.104;2022-09-09T06:35:31;8.27;;;2.80;;
3131;SDS011;62090;52.330;9.104;2022-09-09T06:38:01;6.60;;;2.73;;
3131;SDS011;62090;52.330;9.104;2022-09-09T06:40:32;4.53;;;2.37;;
3131;SDS011;62090;52.330;9.104;2022-09-09T06:43:02;9.43;;;2.77;;
3131;SDS011;62090;52.330;9.104;2022-09-09T06:45:37;6.20;;;2.77;;
3131;SDS011;62090;52.330;9.104;2022-09-09T06:48:10;8.33;;;2.93;;
3131;SDS011;62090;52.330;9.104;2022-09-09T06:50:40;9.83;;;2.93;;
3131;SDS011;62090;52.330;9.104;2022-09-09T06:53:10;5.23;;;2.50;;
3131;SDS011;62090;52.330;9.104;2022-09-09T06:55:39;10.47;;;3.07;;
3131;SDS011;62090;52.330;9.104;2022-09-09T06:58:11;9.43;;;3.00;;
3131;SDS011;62090;52.330;9.104;2022-09-09T07:00:41;6.57;;;2.73;;
3131;SDS011;62090;52.330;9.104;2022-09-09T07:03:13;5.60;;;2.20;;
3131;SDS011;62090;52.330;9.104;2022-09-09T07:05:43;4.30;;;2.20;;
3131;SDS011;62090;52.330;9.104;2022-09-09T07:08:25;9.37;;;2.90;;
3131;SDS011;62090;52.330;9.104;2022-09-09T07:10:55;7.10;;;2.20;;
3131;SDS011;62090;52.330;9.104;2022-09-09T07:13:37;9.00;;;2.13;;
3131;SDS011;62090;52.330;9.104;2022-09-09T07:16:10;7.73;;;2.10;;
3131;SDS011;62090;52.330;9.104;2022-09-09T07:18:46;11.37;;;2.57;;
3131;SDS011;62090;52.330;9.104;2022-09-09T07:21:19;9.20;;;2.20;;
3131;SDS011;62090;52.330;9.104;2022-09-09T07:23:49;9.60;;;2.47;;
3131;SDS011;62090;52.330;9.104;2022-09-09T07:26:19;4.20;;;2.20;;
3131;SDS011;62090;52.330;9.104;2022-09-09T07:28:53;6.03;;;2.13;;
3131;SDS011;62090;52.330;9.104;2022-09-09T07:31:24;10.27;;;2.50;;
3131;SDS011;62090;52.330;9.104;2022-09-09T07:34:01;8.90;;;1.60;;
3131;SDS011;62090;52.330;9.104;2022-09-09T07:36:32;7.73;;;2.37;;
3131;SDS011;62090;52.330;9.104;2022-09-09T07:39:05;11.03;;;1.90;;
3131;SDS011;62090;52.330;9.104;2022-09-09T07:41:38;4.93;;;1.63;;
3131;SDS011;62090;52.330;9.104;2022-09-09T07:44:10;7.57;;;2.30;;
3131;SDS011;62090;52.330;9.104;2022-09-09T07:46:43;5.80;;;1.80;;
3131;SDS011;62090;52.330;9.104;2022-09-09T07:49:21;4.80;;;1.87;;
3131;SDS011;62090;52.330;9.104;2022-09-09T07:51:58;8.23;;;2.00;;
3131;SDS011;62090;52.330;9.104;2022-09-09T07:54:30;11.40;;;2.50;;
3131;SDS011;62090;52.330;9.104;2022-09-09T07:57:03;8.93;;;2.13;;
3131;SDS011;62090;52.330;9.104;2022-09-09T07:59:35;14.00;;;2.10;;
3131;SDS011;62090;52.330;9.104;2022-09-09T08:02:04;6.07;;;2.27;;
3131;SDS011;62090;52.330;9.104;2022-09-09T08:04:38;7.30;;;2.13;;
3131;SDS011;62090;52.330;9.104;2022-09-09T08:07:10;6.87;;;1.93;;
3131;SDS011;62090;52.330;9.104;2022-09-09T08:09:50;7.60;;;2.00;;
3131;SDS011;62090;52.330;9.104;2022-09-09T08:12:26;7.57;;;1.63;;
3131;SDS011;62090;52.330;9.104;2022-09-09T08:14:56;13.03;;;2.27;;
3131;SDS011;62090;52.330;9.104;2022-09-09T08:17:30;6.40;;;1.73;;
3131;SDS011;62090;52.330;9.104;2022-09-09T08:20:07;8.90;;;1.93;;
3131;SDS011;62090;52.330;9.104;2022-09-09T08:22:38;8.30;;;2.07;;
3131;SDS011;62090;52.330;9.104;2022-09-09T08:25:08;13.43;;;2.10;;
3131;SDS011;62090;52.330;9.104;2022-09-09T08:27:38;11.10;;;2.00;;
3131;SDS011;62090;52.330;9.104;2022-09-09T08:30:11;7.43;;;2.07;;
3131;SDS011;62090;52.330;9.104;2022-09-09T08:32:41;7.67;;;1.90;;
3131;SDS011;62090;52.330;9.104;2022-09-09T08:35:16;10.17;;;2.10;;
3131;SDS011;62090;52.330;9.104;2022-09-09T08:37:53;7.10;;;1.80;;
3131;SDS011;62090;52.330;9.104;2022-09-09T08:40:25;5.10;;;1.80;;
3131;SDS011;62090;52.330;9.104;2022-09-09T08:43:03;6.90;;;1.70;;
3131;SDS011;62090;52.330;9.104;2022-09-09T08:45:37;3.67;;;1.83;;
3131;SDS011;62090;52.330;9.104;2022-09-09T08:48:23;4.00;;;1.73;;
3131;SDS011;62090;52.330;9.104;2022-09-09T08:51:11;5.93;;;2.10;;
3131;SDS011;62090;52.330;9.104;2022-09-09T08:53:43;9.63;;;2.30;;
3131;SDS011;62090;52.330;9.104;2022-09-09T08:56:18;6.47;;;1.90;;
3131;SDS011;62090;52.330;9.104;2022-09-09T08:58:54;8.83;;;1.50;;
3131;SDS011;62090;52.330;9.104;2022-09-09T09:01:41;7.30;;;1.70;;
3131;SDS011;62090;52.330;9.104;2022-09-09T09:04:29;5.30;;;1.97;;
3131;SDS011;62090;52.330;9.104;2022-09-09T09:07:21;8.10;;;1.60;;
3131;SDS011;62090;52.330;9.104;2022-09-09T09:10:04;7.47;;;1.77;;
3131;SDS011;62090;52.330;9.104;2022-09-09T09:13:07;8.43;;;1.90;;
3131;SDS011;62090;52.330;9.104;2022-09-09T09:15:44;10.93;;;2.20;;
3131;SDS011;62090;52.330;9.104;2022-09-09T09:18:20;9.40;;;1.77;;
3131;SDS011;62090;52.330;9.104;2022-09-09T09:20:53;10.17;;;2.00;;
3131;SDS011;62090;52.330;9.104;2022-09-09T09:23:32;8.17;;;1.63;;
3131;SDS011;62090;52.330;9.104;2022-09-09T09:26:09;7.23;;;2.10;;
3131;SDS011;62090;52.330;9.104;2022-09-09T09:28:42;6.00;;;1.93;;
3131;SDS011;62090;52.330;9.104;2022-09-09T09:31:16;7.87;;;2.13;;
3131;SDS011;62090;52.330;9.104;2022-09-09T09:33:50;7.50;;;2.10;;
3131;SDS011;62090;52.330;9.104;2022-09-09T09:36:25;4.97;;;1.87;;
3131;SDS011;62090;52.330;9.104;2022-09-09T09:39:06;4.83;;;1.43;;
3131;SDS011;62090;52.330;9.104;2022-09-09T09:41:59;7.43;;;1.83;;
3131;SDS011;62090;52.330;9.104;2022-09-09T09:44:44;8.40;;;2.17;;
3131;SDS011;62090;52.330;9.104;2022-09-09T09:47:18;11.03;;;2.63;;
3131;SDS011;62090;52.330;9.104;2022-09-09T09:50:00;10.97;;;2.20;;
3131;SDS011;62090;52.330;9.104;2022-09-09T09:52:36;5.60;;;1.80;;
3131;SDS011;62090;52.330;9.104;2022-09-09T09:55:14;8.60;;;1.93;;
3131;SDS011;62090;52.330;9.104;2022-09-09T09:57:45;8.80;;;2.27;;
3131;SDS011;62090;52.330;9.104;2022-09-09T10:00:17;11.23;;;1.97;;
3131;SDS011;62090;52.330;9.104;2022-09-09T10:02:56;4.73;;;1.67;;
3131;SDS011;62090;52.330;9.104;2022-09-09T10:05:29;8.37;;;1.83;;
3131;SDS011;62090;52.330;9.104;2022-09-09T10:08:09;14.97;;;2.07;;
3131;SDS011;62090;52.330;9.104;2022-09-09T10:10:49;21.40;;;3.67;;
3131;SDS011;62090;52.330;9.104;2022-09-09T10:13:37;19.17;;;3.40;;
3131;SDS011;62090;52.330;9.104;2022-09-09T10:16:19;12.37;;;2.90;;
3131;SDS011;62090;52.330;9.104;2022-09-09T10:18:58;10.70;;;2.33;;
3131;SDS011;62090;52.330;9.104;2022-09-09T10:21:36;9.60;;;2.23;;
3131;SDS011;62090;52.330;9.104;2022-09-09T10:24:32;11.33;;;2.37;;
3131;SDS011;62090;52.330;9.104;2022-09-09T10:27:15;6.97;;;2.00;;
3131;SDS011;62090;52.330;9.104;2022-09-09T10:29:56;10.83;;;2.27;;
3131;SDS011;62090;52.330;9.104;2022-09-09T10:32:44;19.90;;;2.90;;
3131;SDS011;62090;52.330;9.104;2022-09-09T10:35:21;11.47;;;2.33;;
3131;SDS011;62090;52.330;9.104;2022-09-09T10:41:00;9.40;;;2.37;;
3131;SDS011;62090;52.330;9.104;2022-09-09T10:43:43;9.70;;;2.43;;
3131;SDS011;62090;52.330;9.104;2022-09-09T10:46:28;13.57;;;2.10;;
3131;SDS011;62090;52.330;9.104;2022-09-09T10:49:12;8.70;;;2.33;;
3131;SDS011;62090;52.330;9.104;2022-09-09T10:51:54;11.90;;;2.67;;
3131;SDS011;62090;52.330;9.104;2022-09-09T10:54:37;10.03;;;2.63;;
3131;SDS011;62090;52.330;9.104;2022-09-09T10:57:25;12.07;;;2.70;;
3131;SDS011;62090;52.330;9.104;2022-09-09T11:00:02;9.10;;;2.40;;
3131;SDS011;62090;52.330;9.104;2022-09-09T11:02:34;7.63;;;2.07;;
3131;SDS011;62090;52.330;9.104;2022-09-09T11:05:09;10.13;;;2.40;;
3131;SDS011;62090;52.330;9.104;2022-09-09T11:07:47;9.13;;;1.90;;
3131;SDS011;62090;52.330;9.104;2022-09-09T11:10:24;7.17;;;1.80;;
3131;SDS011;62090;52.330;9.104;2022-09-09T11:13:00;9.90;;;1.90;;
3131;SDS011;62090;52.330;9.104;2022-09-09T11:15:39;6.40;;;1.30;;
3131;SDS011;62090;52.330;9.104;2022-09-09T11:18:15;3.40;;;1.30;;
3131;SDS011;62090;52.330;9.104;2022-09-09T11:20:51;9.63;;;2.17;;
3131;SDS011;62090;52.330;9.104;2022-09-09T11:23:24;7.83;;;1.80;;
3131;SDS011;62090;52.330;9.104;2022-09-09T11:25:59;9.63;;;1.43;;
3131;SDS011;62090;52.330;9.104;2022-09-09T11:28:38;9.57;;;1.83;;
3131;SDS011;62090;52.330;9.104;2022-09-09T11:31:31;7.53;;;1.90;;
3131;SDS011;62090;52.330;9.104;2022-09-09T11:34:19;4.43;;;1.60;;
3131;SDS011;62090;52.330;9.104;2022-09-09T11:37:29;6.17;;;1.77;;
3131;SDS011;62090;52.330;9.104;2022-09-09T11:40:19;9.23;;;2.03;;
3131;SDS011;62090;52.330;9.104;2022-09-09T11:43:00;9.50;;;1.63;;
3131;SDS011;62090;52.330;9.104;2022-09-09T11:45:33;8.20;;;1.50;;
3131;SDS011;62090;52.330;9.104;2022-09-09T11:48:21;7.40;;;1.37;;
3131;SDS011;62090;52.330;9.104;2022-09-09T11:50:57;5.50;;;1.47;;
3131;SDS011;62090;52.330;9.104;2022-09-09T11:53:29;9.10;;;1.50;;
3131;SDS011;62090;52.330;9.104;2022-09-09T11:56:04;3.07;;;1.30;;
3131;SDS011;62090;52.330;9.104;2022-09-09T11:58:37;21.57;;;1.90;;
3131;SDS011;62090;52.330;9.104;2022-09-09T12:01:15;7.43;;;1.90;;
3131;SDS011;62090;52.330;9.104;2022-09-09T12:04:05;7.43;;;1.40;;
3131;SDS011;62090;52.330;9.104;2022-09-09T12:06:48;4.57;;;1.60;;
3131;SDS011;62090;52.330;9.104;2022-09-09T12:09:23;6.80;;;1.60;;
3131;SDS011;62090;52.330;9.104;2022-09-09T12:12:05;5.93;;;1.50;;
3131;SDS011;62090;52.330;9.104;2022-09-09T12:14:37;7.10;;;1.40;;
3131;SDS011;62090;52.330;9.104;2022-09-09T12:17:17;4.00;;;1.13;;
3131;SDS011;62090;52.330;9.104;2022-09-09T12:20:02;4.87;;;1.87;;
3131;SDS011;62090;52.330;9.104;2022-09-09T12:22:39;7.15;;;1.40;;
3131;SDS011;62090;52.330;9.104;2022-09-09T12:25:20;4.90;;;1.40;;
3131;SDS011;62090;52.330;9.104;2022-09-09T12:28:02;3.53;;;1.10;;
3131;SDS011;62090;52.330;9.104;2022-09-09T12:30:38;8.10;;;1.83;;
3131;SDS011;62090;52.330;9.104;2022-09-09T12:33:16;5.57;;;1.50;;
3131;SDS011;62090;52.330;9.104;2022-09-09T12:35:52;7.80;;;1.33;;
3131;SDS011;62090;52.330;9.104;2022-09-09T12:38:26;3.83;;;1.23;;
3131;SDS011;62090;52.330;9.104;2022-09-09T12:41:03;4.80;;;1.40;;
3131;SDS011;62090;52.330;9.104;2022-09-09T12:43:33;4.70;;;1.33;;
3131;SDS011;62090;52.330;9.104;2022-09-09T12:46:07;4.97;;;1.43;;
3131;SDS011;62090;52.330;9.104;2022-09-09T12:48:45;8.13;;;1.47;;
3131;SDS011;62090;52.330;9.104;2022-09-09T12:51:21;4.77;;;1.30;;
3131;SDS011;62090;52.330;9.104;2022-09-09T12:56:33;8.53;;;1.70;;
3131;SDS011;62090;52.330;9.104;2022-09-09T12:59:03;6.20;;;1.53;;
3131;SDS011;62090;52.330;9.104;2022-09-09T13:01:33;6.53;;;1.47;;
3131;SDS011;62090;52.330;9.104;2022-09-09T13:04:15;7.70;;;2.00;;
3131;SDS011;62090;52.330;9.104;2022-09-09T13:06:52;5.33;;;0.90;;
3131;SDS011;62090;52.330;9.104;2022-09-09T13:09:22;7.23;;;1.80;;
3131;SDS011;62090;52.330;9.104;2022-09-09T13:11:54;4.87;;;1.40;;
3131;SDS011;62090;52.330;9.104;2022-09-09T13:14:28;3.33;;;1.30;;
3131;SDS011;62090;52.330;9.104;2022-09-09T13:17:06;8.57;;;1.40;;
3131;SDS011;62090;52.330;9.104;2022-09-09T13:19:46;6.03;;;1.50;;
3131;SDS011;62090;52.330;9.104;2022-09-09T13:22:26;6.63;;;1.30;;
3131;SDS011;62090;52.330;9.104;2022-09-09T13:25:02;6.97;;;1.57;;
3131;SDS011;62090;52.330;9.104;2022-09-09T13:27:35;13.30;;;1.50;;
3131;SDS011;62090;52.330;9.104;2022-09-09T13:30:19;9.00;;;1.30;;
3131;SDS011;62090;52.330;9.104;2022-09-09T13:33:19;4.80;;;1.40;;
3131;SDS011;62090;52.330;9.104;2022-09-09T13:35:52;5.90;;;1.57;;
3131;SDS011;62090;52.330;9.104;2022-09-09T13:38:28;12.57;;;1.80;;
3131;SDS011;62090;52.330;9.104;2022-09-09T13:41:01;2.77;;;1.07;;
3131;SDS011;62090;52.330;9.104;2022-09-09T13:43:37;6.50;;;1.30;;
3131;SDS011;62090;52.330;9.104;2022-09-09T13:46:22;6.27;;;1.53;;
3131;SDS011;62090;52.330;9.104;2022-09-09T13:48:56;6.50;;;1.60;;
3131;SDS011;62090;52.330;9.104;2022-09-09T13:51:29;6.63;;;1.77;;
3131;SDS011;62090;52.330;9.104;2022-09-09T13:54:09;6.37;;;2.10;;
3131;SDS011;62090;52.330;9.104;2022-09-09T13:56:40;4.67;;;2.03;;
3131;SDS011;62090;52.330;9.104;2022-09-09T13:59:11;5.33;;;1.53;;
3131;SDS011;62090;52.330;9.104;2022-09-09T14:01:42;7.80;;;1.30;;
3131;SDS011;62090;52.330;9.104;2022-09-09T14:04:12;6.50;;;1.40;;
3131;SDS011;62090;52.330;9.104;2022-09-09T14:06:42;3.57;;;1.27;;
3131;SDS011;62090;52.330;9.104;2022-09-09T14:09:15;3.50;;;1.03;;
3131;SDS011;62090;52.330;9.104;2022-09-09T14:11:45;3.23;;;1.40;;
3131;SDS011;62090;52.330;9.104;2022-09-09T14:14:15;6.57;;;1.40;;
3131;SDS011;62090;52.330;9.104;2022-09-09T14:16:46;10.33;;;1.10;;
3131;SDS011;62090;52.330;9.104;2022-09-09T14:19:16;2.80;;;1.10;;
3131;SDS011;62090;52.330;9.104;2022-09-09T14:21:46;4.40;;;1.37;;
3131;SDS011;62090;52.330;9.104;2022-09-09T14:24:19;2.47;;;1.03;;
3131;SDS011;62090;52.330;9.104;2022-09-09T14:26:49;7.83;;;1.00;;
3131;SDS011;62090;52.330;9.104;2022-09-09T14:29:19;3.40;;;1.00;;
3131;SDS011;62090;52.330;9.104;2022-09-09T14:31:48;4.70;;;1.23;;
3131;SDS011;62090;52.330;9.104;2022-09-09T14:34:18;2.60;;;0.97;;
3131;SDS011;62090;52.330;9.104;2022-09-09T14:36:48;3.87;;;1.30;;
3131;SDS011;62090;52.330;9.104;2022-09-09T14:39:20;4.83;;;1.20;;
3131;SDS011;62090;52.330;9.104;2022-09-09T14:41:50;7.50;;;1.13;;
3131;SDS011;62090;52.330;9.104;2022-09-09T14:44:21;2.73;;;1.10;;
3131;SDS011;62090;52.330;9.104;2022-09-09T14:46:51;4.67;;;1.20;;
3131;SDS011;62090;52.330;9.104;2022-09-09T14:49:20;5.77;;;1.10;;
3131;SDS011;62090;52.330;9.104;2022-09-09T14:51:50;4.73;;;1.33;;
3131;SDS011;62090;52.330;9.104;2022-09-09T14:54:23;5.77;;;1.53;;
3131;SDS011;62090;52.330;9.104;2022-09-09T14:56:52;2.20;;;0.80;;
3131;SDS011;62090;52.330;9.104;2022-09-09T14:59:23;2.97;;;0.80;;
3131;SDS011;62090;52.330;9.104;2022-09-09T15:01:53;2.50;;;0.90;;
3131;SDS011;62090;52.330;9.104;2022-09-09T15:04:23;4.80;;;0.97;;
3131;SDS011;62090;52.330;9.104;2022-09-09T15:06:52;6.60;;;1.10;;
3131;SDS011;62090;52.330;9.104;2022-09-09T15:09:25;1.20;;;0.80;;
3131;SDS011;62090;52.330;9.104;2022-09-09T15:11:56;7.43;;;1.77;;
3131;SDS011;62090;52.330;9.104;2022-09-09T15:14:28;4.00;;;0.90;;
3131;SDS011;62090;52.330;9.104;2022-09-09T15:16:58;3.03;;;1.20;;
3131;SDS011;62090;52.330;9.104;2022-09-09T15:19:28;4.33;;;1.00;;
3131;SDS011;62090;52.330;9.104;2022-09-09T15:21:58;3.40;;;1.00;;
3131;SDS011;62090;52.330;9.104;2022-09-09T15:24:31;2.27;;;1.10;;
3131;SDS011;62090;52.330;9.104;2022-09-09T15:27:01;8.80;;;3.33;;
3131;SDS011;62090;52.330;9.104;2022-09-09T15:29:32;3.13;;;1.13;;
3131;SDS011;62090;52.330;9.104;2022-09-09T15:32:03;4.60;;;1.00;;
3131;SDS011;62090;52.330;9.104;2022-09-09T15:34:33;3.23;;;0.90;;
3131;SDS011;62090;52.330;9.104;2022-09-09T15:37:03;2.73;;;0.97;;
3131;SDS011;62090;52.330;9.104;2022-09-09T15:39:35;2.40;;;0.80;;
3131;SDS011;62090;52.330;9.104;2022-09-09T15:42:06;1.90;;;0.90;;
3131;SDS011;62090;52.330;9.104;2022-09-09T15:44:38;6.70;;;1.07;;
3131;SDS011;62090;52.330;9.104;2022-09-09T15:47:10;5.93;;;0.90;;
3131;SDS011;62090;52.330;9.104;2022-09-09T15:49:42;3.50;;;1.07;;
3131;SDS011;62090;52.330;9.104;2022-09-09T15:52:13;1.33;;;0.90;;
3131;SDS011;62090;52.330;9.104;2022-09-09T15:54:45;2.40;;;1.00;;